Date,TemperatureHighF,TemperatureAvgF,TemperatureLowF,DewpointHighF,DewpointAvgF,DewpointLowF,HumidityHigh,HumidityAvg,HumidityLow,PressureMaxIn,PressureMinIn,WindSpeedMaxMPH,WindSpeedAvgMPH,GustSpeedMaxMPH,PrecipitationSumIn
2013-1-1,34,24,16,18,10,7,67,57,42,30.19,30.03,25,12,33,0.00
2013-1-2,34,26,14,10,6,-2,53,42,31,30.26,30.16,22,11,30,0.00
2013-1-3,34,23,9,7,2,-2,60,40,28,30.24,30.07,27,14,37,0.00
2013-1-4,37,26,18,12,6,0,57,41,32,30.10,30.02,17,-5,24,0.00
2013-1-5,37,27,16,16,9,1,62,46,37,30.21,30.05,21,10,29,0.00
2013-1-6,43,32,27,12,10,7,49,38,28,30.05,29.85,30,14,35,0.00
2013-1-7,43,32,23,18,14,10,58,48,33,29.89,29.66,15,7,25,0.00
2013-1-8,48,39,28,19,15,10,51,37,21,29.98,29.68,29,-44,41,0.00
2013-1-9,54,44,28,23,19,12,50,36,25,29.97,29.70,23,17,32,0.00
2013-1-10,46,36,18,25,18,9,73,49,31,29.70,29.52,20,11,28,0.00
2013-1-11,18,10,7,9,2,-4,78,68,60,30.04,29.67,21,10,25,0.00
2013-1-12,12,8,1,1,-2,-8,71,63,55,30.06,30.02,15,7,20,0.00
2013-1-13,16,8,1,0,-5,-9,71,55,44,30.11,30.06,20,10,27,0.00
2013-1-14,18,12,7,0,-6,-8,55,45,37,30.09,29.96,23,15,29,0.00
2013-1-15,30,22,18,14,6,0,62,51,44,30.09,29.96,25,18,37,0.00
2013-1-16,36,28,25,18,12,9,58,51,43,30.27,30.07,23,14,38,0.00
2013-1-17,43,31,21,18,13,10,62,48,33,30.29,30.01,25,15,33,0.00
2013-1-18,46,38,32,18,15,12,47,37,30,30.01,29.89,23,14,33,0.00
2013-1-19,39,32,23,21,14,9,68,49,32,30.20,29.99,10,5,0,0.00
2013-1-20,37,23,12,16,11,3,78,60,37,30.36,30.07,14,6,20,0.00
2013-1-21,34,21,12,18,10,5,78,64,51,30.22,29.96,9,2,0,0.00
2013-1-22,46,32,21,16,11,9,58,44,26,30.05,29.96,16,7,22,0.00
2013-1-23,34,22,18,12,10,9,72,58,37,30.12,29.88,9,3,0,0.00
2013-1-24,54,41,18,25,16,9,67,38,25,30.06,29.83,32,9,38,0.00
2013-1-25,52,37,23,25,18,10,68,49,31,30.06,29.90,21,7,27,0.00
2013-1-26,54,42,34,25,20,16,51,41,27,29.91,29.68,16,6,24,0.00
2013-1-27,36,32,27,25,20,16,68,61,47,29.81,29.68,14,3,20,0.00
2013-1-28,37,28,18,21,15,5,79,62,27,29.82,29.71,18,-9,27,0.00
2013-1-29,27,19,3,14,5,-6,67,55,38,30.09,29.69,18,7,24,0.00
2013-1-30,28,21,7,21,11,-2,79,64,44,29.97,29.79,20,-7,28,0.00
2013-1-31,28,18,3,18,9,-6,71,65,53,30.12,29.98,22,-30,28,0.00
2013-2-1,45,34,27,27,19,16,64,54,36,30.17,29.95,20,8,24,0.00
2013-2-2,46,31,19,21,16,9,73,55,36,30.25,30.13,21,9,25,0.00
2013-2-3,52,36,28,25,18,10,63,47,23,30.13,29.90,24,-3,33,0.00
2013-2-4,52,38,28,21,18,10,58,43,27,29.90,29.78,29,11,39,0.00
2013-2-5,48,38,28,25,18,10,63,45,34,29.93,29.73,15,8,22,0.00
2013-2-6,50,37,27,18,14,9,50,38,26,30.03,29.73,23,9,31,0.00
2013-2-7,45,32,21,19,14,9,73,48,33,30.04,29.87,13,5,20,0.00
2013-2-8,43,32,23,18,14,10,63,49,33,29.91,29.85,8,3,0,0.00
2013-2-9,39,30,19,25,18,10,80,59,41,29.87,29.76,17,2,22,0.00
2013-2-10,30,25,12,23,13,0,79,62,46,30.08,29.87,20,9,27,0.00
2013-2-11,28,19,7,12,7,-2,78,59,45,30.06,29.91,25,14,36,0.00
2013-2-12,36,26,18,18,10,3,62,49,40,30.02,29.87,18,10,27,0.00
2013-2-13,52,35,28,25,16,10,63,46,29,30.08,29.84,23,7,30,0.00
2013-2-14,32,28,25,18,15,9,73,58,43,30.27,30.06,0,-56,0,0.00
2013-2-15,37,29,23,21,14,9,58,51,44,30.29,30.10,22,6,30,0.00
2013-2-16,46,36,27,21,16,10,50,42,36,30.10,29.74,23,11,30,0.00
2013-2-17,45,36,28,23,17,12,59,47,26,29.94,29.66,28,11,37,0.00
2013-2-18,34,27,19,16,13,9,67,54,40,30.07,29.94,14,5,18,0.00
2013-2-19,28,21,12,16,11,3,73,65,57,29.96,29.75,9,3,0,0.00
2013-2-20,32,23,16,18,13,7,73,64,50,29.87,29.76,9,2,0,0.00
2013-2-21,39,26,19,21,16,10,79,64,38,29.92,29.85,10,2,15,0.00
2013-2-22,39,31,21,16,12,9,68,48,32,29.89,29.65,20,12,29,0.00
2013-2-23,39,34,28,21,12,9,63,40,31,29.95,29.58,18,4,27,0.00
2013-2-24,43,32,25,16,12,7,58,42,25,30.10,29.95,0,0,0,0.00
2013-2-25,45,36,27,18,11,7,50,36,26,29.97,29.78,0,0,0,0.00
2013-2-26,45,35,27,18,12,9,58,39,22,30.16,29.87,0,0,0,0.00
2013-2-27,46,31,16,16,11,7,72,46,21,30.17,30.11,0,0,0,0.00
2013-2-28,48,35,25,18,12,9,58,40,22,30.22,30.12,0,-321,0,0.00
2013-3-1,61,42,28,27,18,9,46,37,26,30.20,30.13,0,-999,0,0.00
2013-3-2,59,46,37,27,23,19,51,40,28,30.17,29.86,0,-999,0,0.00
2013-3-3,54,39,27,28,19,7,69,44,34,29.86,29.54,0,-999,0,0.00
2013-3-4,32,23,12,10,6,3,72,49,33,30.27,29.84,0,-999,0,0.00
2013-3-5,30,20,7,18,10,0,78,63,46,30.25,29.99,0,-999,0,0.00
2013-3-6,37,26,14,21,15,7,79,63,47,30.00,29.72,0,-999,0,0.00
2013-3-7,54,39,25,23,17,7,68,45,14,29.99,29.76,0,-999,0,0.00
2013-3-8,46,36,27,25,20,16,73,54,39,29.98,29.84,0,-999,0,0.00
2013-3-9,48,35,21,21,14,9,79,44,22,30.19,29.90,0,-999,0,0.00
2013-3-10,57,39,19,18,14,9,68,39,16,30.17,29.97,0,-999,0,0.00
2013-3-11,46,39,27,23,17,10,68,40,26,30.25,29.96,0,-999,0,0.00
2013-3-12,50,33,18,19,16,10,79,52,26,30.25,29.99,0,-999,0,0.00
2013-3-13,68,51,34,30,21,12,47,31,18,30.09,29.99,0,-999,0,0.00
2013-3-14,66,53,37,28,24,18,52,33,22,30.12,29.91,16,-351,22,0.00
2013-3-15,66,53,37,27,21,16,55,30,15,30.04,29.87,32,-1,41,0.00
2013-3-16,50,36,27,27,22,16,74,57,34,30.03,29.65,14,6,17,0.00
2013-3-17,43,34,18,27,16,1,74,49,18,29.89,29.49,31,-14,37,0.00
2013-3-18,45,29,12,10,6,0,67,41,15,29.95,29.80,31,-4,43,0.00
2013-3-19,37,29,18,19,13,9,73,51,32,30.22,29.94,12,4,15,0.00
2013-3-20,57,36,18,19,14,9,73,44,19,30.14,29.57,15,5,23,0.00
2013-3-21,48,40,27,28,14,3,69,37,17,29.88,29.54,23,-1,32,0.00
2013-3-22,32,25,16,25,11,1,80,56,31,30.09,29.84,18,-8,23,0.00
2013-3-23,36,24,12,12,2,-8,73,43,17,30.19,30.09,16,8,36,0.00
2013-3-24,36,22,9,7,2,-2,66,46,22,30.23,30.15,13,4,22,0.00
2013-3-25,46,28,7,7,1,-2,66,36,15,30.20,29.98,22,7,29,0.00
2013-3-26,54,40,28,19,9,0,34,27,19,29.99,29.91,15,5,20,0.00
2013-3-27,61,43,19,19,14,7,57,33,18,29.99,29.93,14,-23,20,0.00
2013-3-28,64,48,28,27,19,14,59,33,17,30.06,29.98,12,5,16,0.00
2013-3-29,61,48,36,37,26,16,75,45,26,30.10,30.00,15,-22,39,0.00
2013-3-30,61,50,37,36,23,-100,75,38,19,30.15,30.05,27,9,32,0.00
2013-3-31,61,45,30,25,19,14,59,36,21,30.11,29.97,21,9,29,0.00
2013-4-1,57,42,23,23,18,12,68,40,20,30.11,30.04,14,-10,21,0.00
2013-4-2,68,47,27,28,19,12,63,36,17,30.06,29.90,12,5,15,0.00
2013-4-3,66,55,43,28,23,18,48,29,22,30.09,29.91,17,-6,25,0.00
2013-4-4,57,46,36,28,26,23,64,46,30,30.07,29.82,15,7,21,0.00
2013-4-5,61,51,41,39,30,25,58,44,26,29.83,29.73,24,-5,31,0.00
2013-4-6,63,51,37,34,26,21,60,39,23,29.86,29.76,21,9,29,0.00
2013-4-7,61,47,36,37,33,27,80,59,26,29.81,29.57,25,4,39,0.00
2013-4-8,36,23,19,30,17,12,86,76,67,30.23,29.70,16,10,22,0.00
2013-4-9,28,22,18,14,12,10,79,68,49,30.36,30.23,7,2,0,0.00
2013-4-10,46,30,14,21,15,7,78,56,36,30.24,29.80,17,8,25,0.00
2013-4-11,57,45,34,32,26,18,69,48,28,29.92,29.77,24,12,35,0.00
2013-4-12,52,41,34,30,22,16,74,49,25,30.03,29.73,17,-8,25,0.00
2013-4-13,52,38,34,36,25,18,86,61,40,29.73,29.42,32,0,40,0.00
2013-4-14,39,33,23,25,18,16,80,57,38,29.92,29.62,23,13,33,0.00
2013-4-15,32,25,19,21,16,12,79,69,46,30.09,29.91,13,3,18,0.00
2013-4-16,28,26,21,19,18,16,79,72,63,30.22,30.02,13,-120,17,0.00
2013-4-17,34,25,16,21,17,10,85,70,46,30.24,30.19,15,3,18,0.00
2013-4-18,52,36,18,21,17,10,79,51,23,30.20,30.05,18,8,28,0.00
2013-4-19,57,46,30,37,25,19,81,46,27,30.05,29.81,23,8,33,0.00
2013-4-20,61,50,37,36,29,21,75,48,21,29.96,29.82,24,-2,33,0.00
2013-4-21,46,33,27,30,25,21,86,72,49,30.18,29.95,16,10,21,0.00
2013-4-22,32,27,23,21,18,14,79,69,50,30.37,30.18,15,5,22,0.00
2013-4-23,50,33,18,25,14,5,79,49,15,30.30,30.06,20,10,28,0.00
2013-4-24,57,44,30,28,21,14,80,45,20,30.18,29.90,23,-4,37,0.00
2013-4-25,68,54,37,23,19,12,47,28,13,29.96,29.81,28,12,41,0.00
2013-4-26,73,59,43,28,24,19,45,28,14,30.11,29.96,17,7,25,0.00
2013-4-27,75,62,43,28,24,19,52,26,12,30.07,29.84,22,9,33,0.00
2013-4-28,64,58,52,34,28,21,43,32,20,29.98,29.77,16,5,21,0.00
2013-4-29,68,50,43,37,28,12,70,44,19,29.78,29.52,39,12,48,0.00
2013-4-30,48,40,30,21,13,9,50,33,22,30.20,29.76,28,14,36,0.00
2013-5-1,48,36,27,18,15,10,63,43,21,30.51,30.20,9,3,0,0.00
2013-5-2,64,48,28,25,17,12,63,33,14,30.53,30.22,17,11,29,0.00
2013-5-3,64,54,45,39,23,14,75,32,18,30.22,30.10,22,11,29,0.00
2013-5-4,59,49,43,39,37,30,81,63,38,30.24,30.18,20,4,24,0.00
2013-5-5,66,51,36,34,29,25,75,46,24,30.20,30.02,14,3,20,0.00
2013-5-6,73,57,36,36,28,19,60,34,20,30.04,29.89,9,3,0,0.00
2013-5-7,79,62,39,36,29,25,64,32,15,29.95,29.85,14,-23,25,0.00
2013-5-8,72,59,46,36,34,27,61,39,26,30.14,29.95,15,6,24,0.00
2013-5-9,75,58,43,37,35,30,65,43,23,30.15,30.07,13,-10,29,0.00
2013-5-10,72,58,41,39,30,-100,70,38,19,30.35,30.11,23,9,29,0.00
2013-5-11,77,58,37,34,25,-100,44,29,19,30.36,30.07,10,2,16,0.00
2013-5-12,90,72,54,45,35,30,46,27,12,30.09,29.94,21,8,31,0.00
2013-5-13,91,75,61,43,36,28,41,26,10,30.01,29.74,23,-42,32,0.00
2013-5-14,79,68,52,41,34,25,57,31,17,29.96,29.76,17,6,30,0.00
2013-5-15,75,62,46,39,26,18,41,25,18,30.04,29.86,13,4,20,0.00
2013-5-16,70,54,52,48,26,-100,76,56,35,29.92,29.82,16,5,23,0.00
2013-5-17,61,54,50,50,43,-100,87,74,59,29.90,29.85,9,2,0,0.00
2013-5-18,57,53,48,48,47,45,87,79,71,29.94,29.89,8,2,0,0.00
2013-5-19,52,52,50,46,45,43,81,77,76,30.05,29.93,24,13,30,0.00
2013-5-20,64,56,48,46,40,27,81,59,25,30.15,30.04,18,12,27,0.00
2013-5-21,68,54,39,39,34,28,80,52,25,30.13,29.92,17,5,23,0.00
2013-5-22,66,54,45,43,41,36,81,63,42,29.97,29.86,15,4,22,0.00
2013-5-23,70,58,50,50,45,41,81,61,40,29.93,29.74,0,0,0,0.00
2013-5-24,70,59,48,48,35,27,81,45,19,29.96,29.75,0,-28,0,0.00
2013-5-25,73,60,41,41,35,28,65,40,25,29.93,29.84,0,-120,0,0.00
2013-5-26,72,60,48,50,43,36,71,54,43,29.98,29.82,0,-21,0,0.00
2013-5-27,64,56,48,46,43,39,81,64,45,29.90,29.80,0,0,0,0.00
2013-5-28,70,57,46,48,42,37,81,58,32,29.80,29.70,0,0,0,0.00
2013-5-29,55,53,52,48,46,45,87,80,76,29.77,29.69,0,0,0,0.00
2013-5-30,55,52,50,46,43,37,81,71,57,29.85,29.67,0,0,0,0.00
2013-5-31,55,49,46,43,39,37,81,69,57,30.21,29.84,0,0,0,0.00
2013-6-1,66,57,46,43,41,37,81,56,34,30.23,30.06,0,0,0,0.00
2013-6-2,75,62,50,50,45,41,76,56,35,30.06,29.70,0,-28,0,0.00
2013-6-3,61,53,46,48,38,34,81,58,36,30.06,29.74,0,0,0,0.00
2013-6-4,54,48,41,37,35,30,75,60,50,30.25,30.05,12,-40,0,0.00
2013-6-5,68,53,36,41,36,30,86,55,28,30.24,30.02,8,2,0,0.00
2013-6-6,79,63,46,48,43,36,71,49,25,30.06,30.02,9,-466,0,0.00
2013-6-7,84,66,48,52,46,39,87,51,21,30.03,29.73,0,-999,0,0.00
2013-6-8,79,68,57,45,41,36,58,38,20,29.96,29.78,17,-194,24,0.00
2013-6-9,82,67,46,52,44,39,81,48,25,29.96,29.72,10,5,17,0.00
2013-6-10,79,65,52,54,46,39,76,51,27,29.93,29.79,13,6,20,0.00
2013-6-11,75,63,54,59,53,46,87,68,52,30.03,29.79,17,6,27,0.00
2013-6-12,73,61,50,57,52,45,87,71,49,30.09,29.93,21,3,25,0.00
2013-6-13,79,65,54,57,52,48,87,65,36,30.02,29.78,24,-22,30,0.00
2013-6-14,66,58,46,48,39,32,81,52,27,30.06,29.94,25,11,35,0.00
2013-6-15,75,61,43,39,36,30,70,41,20,30.08,29.96,8,2,0,0.00
2013-6-16,77,64,46,45,42,37,76,45,27,30.13,30.00,13,4,0,0.00
2013-6-17,79,67,52,52,47,43,71,49,34,30.14,29.98,13,6,21,0.00
2013-6-18,86,70,55,57,49,43,71,49,23,29.99,29.75,12,4,16,0.00
2013-6-19,86,70,55,54,46,28,66,42,29,29.76,29.48,30,10,43,0.00
2013-6-20,73,61,52,32,27,21,40,28,18,29.92,29.69,21,7,33,0.00
2013-6-22,66,59,50,50,46,39,76,62,44,30.02,29.93,16,6,27,0.00
2013-6-23,75,62,45,45,42,37,81,51,27,29.99,29.78,13,5,17,0.00
2013-6-24,86,68,50,52,47,41,76,49,21,29.78,29.62,14,3,21,0.00
2013-6-25,82,74,63,48,42,37,59,34,20,29.88,29.68,16,-4,22,0.00
2013-6-26,84,73,61,54,46,43,63,40,24,30.10,29.87,16,4,29,0.00
2013-6-27,88,74,55,57,52,48,82,50,25,30.22,30.10,10,4,16,0.00
2013-6-28,91,76,61,54,50,46,67,43,22,30.26,30.14,10,-6,15,0.00
2013-6-29,88,75,61,57,53,48,77,47,29,30.20,30.08,27,7,35,0.00
2013-6-30,88,72,57,59,55,52,87,57,31,30.15,30.08,15,2,25,0.00
2013-7-1,90,76,61,55,53,50,77,46,27,30.21,30.15,9,4,0,0.00
2013-7-2,91,79,59,57,51,45,76,42,19,30.17,29.99,7,2,0,0.00
2013-7-3,97,84,61,55,49,45,67,33,17,29.99,29.88,20,-17,28,0.00
2013-7-4,91,77,66,61,56,48,68,50,27,29.97,29.82,16,7,27,0.00
2013-7-5,79,71,66,57,54,50,68,55,39,29.89,29.80,16,6,25,0.00
2013-7-6,82,68,57,55,52,48,82,59,30,29.97,29.85,14,5,20,0.00
2013-7-7,81,67,57,57,53,45,82,60,31,30.01,29.89,15,3,40,0.00
2013-7-8,81,66,57,57,53,48,82,65,39,30.05,29.95,9,1,0,0.00
2013-7-9,81,70,57,57,52,46,87,57,32,30.17,30.05,10,4,15,0.00
2013-7-10,93,73,55,55,45,-100,76,43,17,30.13,29.90,8,-7,0,0.00
2013-7-14,84,70,55,54,49,45,72,49,30,30.22,30.05,14,8,18,0.00
2013-7-15,97,77,57,57,49,37,72,43,12,30.05,29.89,10,3,0,0.00
2013-7-16,79,64,61,50,43,39,59,48,27,30.26,29.94,17,6,25,0.00
2013-7-17,81,69,57,61,50,45,62,53,40,30.20,30.03,15,2,23,0.00
2013-7-18,93,78,59,55,46,30,72,37,11,30.12,30.03,14,-6,20,0.00
2013-7-19,91,77,57,48,42,34,54,31,14,30.13,29.95,10,-6,15,0.00
2013-7-20,90,75,61,48,41,-100,48,31,17,30.03,29.87,9,4,0,0.00
2013-7-21,93,77,55,46,40,32,58,28,12,29.93,29.84,15,8,20,0.00
2013-7-22,93,76,57,52,44,28,58,34,10,29.98,29.84,15,6,21,0.00
2013-7-23,91,75,55,48,44,37,62,35,16,30.12,29.99,15,5,27,0.00
2013-7-24,93,76,63,54,48,41,55,38,19,30.13,29.92,13,4,21,0.00
2013-7-25,84,73,57,52,50,45,71,45,28,30.20,30.00,22,9,30,0.00
2013-7-26,84,69,55,52,47,43,66,47,28,30.25,30.06,14,8,18,0.00
2013-7-27,88,71,55,50,45,41,62,40,23,30.08,29.88,13,-8,15,0.00
2013-7-28,79,70,57,55,48,43,82,47,31,29.97,29.87,22,-18,31,0.00
2013-7-29,75,65,55,52,49,46,87,60,38,30.09,29.92,14,7,18,0.00
2013-7-30,79,66,55,55,50,48,82,57,36,30.22,30.03,16,4,30,0.00
2013-7-31,88,69,52,55,50,43,87,57,20,30.24,30.07,7,1,0,0.00
2013-8-1,81,71,61,52,49,45,67,46,32,30.09,29.84,17,7,31,0.00
2013-8-2,73,65,57,55,52,45,87,64,46,30.09,29.94,13,6,18,0.00
2013-8-3,79,66,55,55,53,46,87,62,41,30.13,30.01,13,5,20,0.00
2013-8-4,84,69,55,55,53,46,87,58,32,30.11,29.98,12,4,17,0.00
2013-8-5,91,72,57,55,48,39,72,47,16,30.05,29.89,17,5,32,0.00
2013-8-6,86,71,54,48,44,39,76,41,19,30.06,29.98,14,-14,22,0.00
2013-8-7,86,70,54,48,44,37,67,42,22,30.07,29.94,16,4,23,0.00
2013-8-8,82,68,54,52,48,45,71,51,30,30.09,30.01,16,6,22,0.00
2013-8-9,77,66,61,59,50,45,82,58,41,30.15,30.09,15,6,20,0.00
2013-8-10,84,67,54,57,52,43,93,60,33,30.11,30.02,10,2,0,0.00
2013-8-13,86,69,57,52,43,-100,62,43,27,30.15,30.08,14,5,20,0.00
2013-8-14,88,69,55,48,41,-100,66,40,16,30.13,30.00,12,4,17,0.00
2013-8-15,91,62,54,50,21,-100,66,35,15,30.09,29.99,10,3,0,0.00
2013-8-16,93,74,57,50,38,-100,54,31,19,30.03,29.92,9,2,0,0.00
2013-8-17,91,77,61,48,40,-100,44,28,21,30.04,29.93,9,5,0,0.00
2013-8-18,90,78,63,48,45,43,51,32,22,30.08,29.94,13,-15,0,0.00
2013-8-19,99,72,61,46,29,-100,55,30,9,30.03,29.89,14,-10,20,0.00
2013-8-20,93,76,59,43,34,-100,41,23,12,30.01,29.89,10,3,15,0.00
2013-8-21,84,73,57,45,41,36,58,32,20,30.11,29.95,14,-7,18,0.00
2013-8-26,93,81,73,46,42,37,35,26,15,30.01,29.93,13,5,22,0.00
2013-8-27,84,74,66,48,46,43,52,37,26,30.07,29.97,12,-25,16,0.00
2013-8-28,93,84,68,57,48,45,52,31,19,30.03,29.91,20,5,36,0.00
2013-8-29,91,74,57,54,50,45,71,46,21,30.13,30.04,10,4,16,0.00
2013-8-30,95,74,57,54,48,37,76,44,13,30.09,29.94,12,4,18,0.00
2013-8-31,82,72,61,46,38,-100,45,30,21,30.14,29.98,9,5,0,0.00
2013-9-1,88,71,50,45,39,34,61,33,20,30.12,29.97,9,3,0,0.00
2013-9-23,72,61,52,41,34,28,58,39,21,29.93,29.69,28,11,37,0.00
2013-9-24,73,58,39,37,34,30,75,44,24,29.96,29.70,29,-14,39,0.00
2013-9-25,52,48,46,45,40,34,87,73,57,29.75,29.68,13,4,16,0.00
2013-9-26,48,44,39,43,36,32,87,73,57,29.98,29.73,14,5,18,0.00
2013-9-27,55,44,39,36,34,25,86,68,32,30.00,29.89,15,-12,21,0.00
2013-9-28,64,50,39,37,32,-100,80,53,31,29.93,29.85,18,11,27,0.00
2013-9-29,72,58,45,37,36,34,70,43,24,29.82,29.63,27,10,36,0.00
2013-9-30,70,51,41,46,34,19,80,54,24,29.82,29.54,35,11,46,0.00
2013-10-1,61,54,50,34,32,30,49,42,36,29.95,29.89,8,2,0,0.00
2013-10-2,55,49,41,37,32,25,81,53,30,30.09,29.95,13,5,17,0.00
2013-10-3,46,38,34,37,31,25,86,76,55,30.24,29.92,18,12,23,0.00
2013-10-4,43,35,30,30,28,25,86,74,52,30.40,30.25,12,5,18,0.00
2013-10-5,54,37,25,28,23,16,79,58,34,30.30,30.18,15,7,20,0.00
2013-10-6,64,50,37,37,30,25,60,46,33,30.19,30.03,20,10,25,0.00
2013-10-7,64,57,48,37,34,30,53,41,31,30.02,29.71,20,11,29,0.00
2013-10-18,55,44,34,27,24,19,64,46,30,30.18,29.99,16,8,24,0.00
2013-10-19,59,48,37,30,22,-100,51,39,30,29.99,29.88,13,7,21,0.00
2013-10-20,54,47,43,30,28,27,56,46,34,30.07,29.97,22,7,28,0.00
2013-10-21,63,50,39,34,31,23,65,48,31,30.09,30.03,16,6,25,0.00
2013-10-22,64,50,37,39,32,25,70,51,34,30.12,30.04,12,6,17,0.00
2013-10-23,57,46,34,37,32,25,80,58,43,30.21,30.08,8,4,0,0.00
2013-10-24,55,43,30,37,31,25,86,64,43,30.23,30.07,7,1,0,0.00
2013-10-25,68,51,37,39,31,27,64,49,26,30.24,30.05,13,6,21,0.00
2013-10-26,66,50,32,36,28,-100,74,46,29,30.24,29.98,17,7,23,0.00
2013-10-27,61,48,36,30,28,21,64,47,26,30.07,29.84,18,-30,24,0.00
2013-10-28,36,26,23,25,16,-100,79,71,51,30.14,30.09,16,11,23,0.00
2013-10-29,28,26,21,21,19,16,79,76,68,30.09,29.87,6,0,0,0.00
2013-10-30,52,38,19,28,23,10,79,53,37,29.84,29.78,10,5,0,0.00
2013-10-31,54,44,32,32,26,19,80,50,36,29.93,29.75,27,-2,36,0.00
2013-11-14,46,38,28,25,21,18,63,49,38,30.08,29.71,10,2,18,0.00
2013-11-15,50,35,23,25,17,14,73,50,27,29.70,29.39,23,-49,35,0.00
2013-11-16,48,38,32,27,18,-100,69,47,33,29.49,29.29,18,4,29,0.00
2013-11-17,45,36,25,19,15,10,59,42,26,29.92,29.51,25,-34,36,0.00
2013-11-18,57,43,23,19,14,9,54,33,20,29.91,29.75,18,7,29,0.00
2013-11-19,61,50,41,27,22,16,48,33,26,29.74,29.60,15,8,20,0.00
2013-11-20,39,13,7,23,2,-4,66,62,48,30.29,29.67,13,5,18,0.00
2013-11-27,54,41,27,25,19,16,68,42,32,30.12,30.00,15,7,23,0.00
2013-11-28,39,31,19,23,18,12,79,59,44,30.12,29.97,12,4,0,0.00
2013-11-29,57,41,30,27,22,18,63,47,28,30.05,29.98,10,-11,16,0.00
2013-11-30,54,41,36,27,22,-100,55,48,32,30.11,30.04,9,3,0,0.00
2013-12-1,48,41,34,28,25,21,60,53,42,30.03,29.66,15,5,22,0.00
2013-12-2,48,34,19,30,25,16,86,69,42,29.78,29.53,15,6,22,0.00
2013-12-3,19,11,7,16,4,-2,85,73,65,30.07,29.76,12,4,15,0.00
2013-12-4,7,2,-2,0,-8,-18,77,62,49,30.12,30.05,13,5,15,0.00
2013-12-20,25,17,9,10,6,0,66,59,52,29.86,29.53,16,9,22,0.00
2013-12-21,28,24,18,23,14,-100,86,71,53,29.93,29.53,6,2,0,0.00
2013-12-22,16,10,0,10,4,-8,85,75,66,30.18,29.91,15,-13,20,0.00
2013-12-23,37,24,-4,23,12,-11,79,63,51,30.17,29.80,27,15,36,0.00
2013-12-24,39,36,30,32,21,16,86,52,40,30.24,29.89,30,18,40,0.00
2013-12-25,36,28,18,18,14,9,67,54,43,30.27,30.04,24,11,33,0.00
2013-12-26,43,35,27,25,20,14,63,52,44,30.13,30.02,18,-27,28,0.00
2013-12-27,48,42,36,27,23,21,55,46,39,30.08,29.84,21,13,28,0.00
2013-12-28,45,24,12,23,8,-100,72,53,39,30.28,29.80,25,-44,37,0.00
2013-12-29,39,27,14,21,13,7,72,56,44,30.25,29.86,23,12,33,0.00
2013-12-30,39,37,32,23,21,19,59,51,44,30.11,29.85,24,11,35,0.00
2013-12-31,45,37,30,30,25,21,86,64,48,30.01,29.83,24,-8,32,0.00
2014-1-1,32,29,21,28,23,16,86,77,63,30.25,30.00,9,-36,0,0.00
2014-1-2,39,30,19,21,18,12,79,62,47,30.14,29.76,27,14,37,0.00